Terminal Aerodrome Forecast
Issued by NWS

Home | Current Version | Previous Version | Text Only | Print | Product List | Glossary On
Versions: 1 2 3 4 5 6 7 8 9 10 11 12 13 14 15 16 17 18 19 20 21 22 23 24 25
309
FTUS46 KSGX 231732
TAFSAN
TAF
KSAN 231732Z 2318/2424 29006KT P6SM BKN014
     FM231900 29009KT P6SM BKN015
      TEMPO 2321/2323 SCT015
     FM240300 VRB04KT P6SM OVC010
     FM241000 VRB04KT P6SM OVC008
     FM241600 VRB05KT P6SM BKN011
     FM241900 30010KT P6SM SCT015=

USA.gov is the U.S. government's official web portal to all federal, state and local government web resources and services.